sensor_id;sensor_type;location;lat;lon;timestamp;P1;durP1;ratioP1;P2;durP2;ratioP2
73760;SDS011;69240;43.530;-5.646;2023-05-25T00:02:17;16.02;;;6.07;;
73760;SDS011;69240;43.530;-5.646;2023-05-25T00:04:43;12.73;;;5.22;;
73760;SDS011;69240;43.530;-5.646;2023-05-25T00:07:12;18.15;;;5.90;;
73760;SDS011;69240;43.530;-5.646;2023-05-25T00:09:39;15.57;;;5.78;;
73760;SDS011;69240;43.530;-5.646;2023-05-25T00:12:06;18.05;;;5.30;;
73760;SDS011;69240;43.530;-5.646;2023-05-25T00:14:31;17.67;;;5.43;;
73760;SDS011;69240;43.530;-5.646;2023-05-25T00:16:57;19.00;;;5.65;;
73760;SDS011;69240;43.530;-5.646;2023-05-25T00:19:23;18.50;;;6.00;;
73760;SDS011;69240;43.530;-5.646;2023-05-25T00:21:49;13.57;;;5.43;;
73760;SDS011;69240;43.530;-5.646;2023-05-25T00:24:15;13.57;;;5.70;;
73760;SDS011;69240;43.530;-5.646;2023-05-25T00:26:40;17.52;;;5.63;;
73760;SDS011;69240;43.530;-5.646;2023-05-25T00:29:06;9.15;;;4.80;;
73760;SDS011;69240;43.530;-5.646;2023-05-25T00:31:31;17.92;;;5.57;;
73760;SDS011;69240;43.530;-5.646;2023-05-25T00:33:59;16.35;;;5.00;;
73760;SDS011;69240;43.530;-5.646;2023-05-25T00:36:25;12.68;;;5.10;;
73760;SDS011;69240;43.530;-5.646;2023-05-25T00:38:50;23.77;;;6.03;;
73760;SDS011;69240;43.530;-5.646;2023-05-25T00:41:16;19.95;;;5.50;;
73760;SDS011;69240;43.530;-5.646;2023-05-25T00:43:45;13.43;;;5.35;;
73760;SDS011;69240;43.530;-5.646;2023-05-25T00:46:13;18.08;;;5.18;;
73760;SDS011;69240;43.530;-5.646;2023-05-25T00:48:39;20.63;;;5.50;;
73760;SDS011;69240;43.530;-5.646;2023-05-25T00:51:05;16.17;;;5.50;;
73760;SDS011;69240;43.530;-5.646;2023-05-25T00:53:31;17.45;;;6.28;;
73760;SDS011;69240;43.530;-5.646;2023-05-25T00:56:02;12.02;;;5.40;;
73760;SDS011;69240;43.530;-5.646;2023-05-25T00:58:32;12.57;;;5.60;;
73760;SDS011;69240;43.530;-5.646;2023-05-25T01:01:00;17.23;;;5.57;;
73760;SDS011;69240;43.530;-5.646;2023-05-25T01:03:29;18.35;;;5.35;;
73760;SDS011;69240;43.530;-5.646;2023-05-25T01:08:28;14.93;;;5.72;;
73760;SDS011;69240;43.530;-5.646;2023-05-25T01:10:57;14.13;;;5.70;;
73760;SDS011;69240;43.530;-5.646;2023-05-25T01:13:26;15.07;;;6.65;;
73760;SDS011;69240;43.530;-5.646;2023-05-25T01:15:52;17.45;;;6.40;;
73760;SDS011;69240;43.530;-5.646;2023-05-25T01:18:18;13.93;;;6.18;;
73760;SDS011;69240;43.530;-5.646;2023-05-25T01:20:54;13.20;;;5.40;;
73760;SDS011;69240;43.530;-5.646;2023-05-25T01:23:21;16.08;;;6.15;;
73760;SDS011;69240;43.530;-5.646;2023-05-25T01:25:53;14.10;;;5.82;;
73760;SDS011;69240;43.530;-5.646;2023-05-25T01:28:29;19.30;;;6.13;;
73760;SDS011;69240;43.530;-5.646;2023-05-25T01:30:59;14.93;;;5.72;;
73760;SDS011;69240;43.530;-5.646;2023-05-25T01:33:26;15.57;;;5.68;;
73760;SDS011;69240;43.530;-5.646;2023-05-25T01:35:52;12.40;;;5.38;;
73760;SDS011;69240;43.530;-5.646;2023-05-25T01:38:18;12.30;;;5.63;;
73760;SDS011;69240;43.530;-5.646;2023-05-25T01:40:44;15.55;;;5.95;;
73760;SDS011;69240;43.530;-5.646;2023-05-25T01:43:10;14.50;;;5.20;;
73760;SDS011;69240;43.530;-5.646;2023-05-25T01:45:35;14.02;;;6.18;;
73760;SDS011;69240;43.530;-5.646;2023-05-25T01:48:15;11.07;;;5.55;;
73760;SDS011;69240;43.530;-5.646;2023-05-25T01:50:59;14.15;;;5.38;;
73760;SDS011;69240;43.530;-5.646;2023-05-25T01:53:30;16.98;;;6.22;;
73760;SDS011;69240;43.530;-5.646;2023-05-25T01:56:01;11.95;;;5.20;;
73760;SDS011;69240;43.530;-5.646;2023-05-25T01:58:34;15.45;;;6.38;;
73760;SDS011;69240;43.530;-5.646;2023-05-25T02:01:07;20.83;;;6.20;;
73760;SDS011;69240;43.530;-5.646;2023-05-25T02:03:33;13.65;;;5.68;;
73760;SDS011;69240;43.530;-5.646;2023-05-25T02:05:59;15.55;;;6.13;;
73760;SDS011;69240;43.530;-5.646;2023-05-25T02:08:25;11.93;;;5.72;;
73760;SDS011;69240;43.530;-5.646;2023-05-25T02:10:50;16.27;;;6.05;;
73760;SDS011;69240;43.530;-5.646;2023-05-25T02:13:16;15.93;;;6.22;;
73760;SDS011;69240;43.530;-5.646;2023-05-25T02:15:42;14.27;;;5.03;;
73760;SDS011;69240;43.530;-5.646;2023-05-25T02:18:07;12.93;;;5.90;;
73760;SDS011;69240;43.530;-5.646;2023-05-25T02:20:33;12.10;;;5.95;;
73760;SDS011;69240;43.530;-5.646;2023-05-25T02:23:00;12.25;;;5.72;;
73760;SDS011;69240;43.530;-5.646;2023-05-25T02:25:26;10.40;;;5.55;;
73760;SDS011;69240;43.530;-5.646;2023-05-25T02:27:51;18.00;;;5.90;;
73760;SDS011;69240;43.530;-5.646;2023-05-25T02:30:17;11.65;;;5.07;;
73760;SDS011;69240;43.530;-5.646;2023-05-25T02:32:42;15.10;;;5.32;;
73760;SDS011;69240;43.530;-5.646;2023-05-25T02:35:08;16.70;;;5.80;;
73760;SDS011;69240;43.530;-5.646;2023-05-25T02:37:34;19.48;;;6.35;;
73760;SDS011;69240;43.530;-5.646;2023-05-25T02:39:59;18.15;;;5.82;;
73760;SDS011;69240;43.530;-5.646;2023-05-25T02:42:25;11.20;;;5.93;;
73760;SDS011;69240;43.530;-5.646;2023-05-25T02:44:50;14.60;;;5.10;;
73760;SDS011;69240;43.530;-5.646;2023-05-25T02:47:16;16.33;;;6.32;;
73760;SDS011;69240;43.530;-5.646;2023-05-25T02:49:43;13.60;;;5.55;;
73760;SDS011;69240;43.530;-5.646;2023-05-25T02:52:09;16.45;;;5.60;;
73760;SDS011;69240;43.530;-5.646;2023-05-25T02:54:35;18.15;;;6.90;;
73760;SDS011;69240;43.530;-5.646;2023-05-25T02:57:04;12.52;;;5.63;;
73760;SDS011;69240;43.530;-5.646;2023-05-25T02:59:29;13.45;;;4.93;;
73760;SDS011;69240;43.530;-5.646;2023-05-25T03:01:55;14.52;;;4.82;;
73760;SDS011;69240;43.530;-5.646;2023-05-25T03:04:22;10.70;;;5.07;;
73760;SDS011;69240;43.530;-5.646;2023-05-25T03:06:47;9.90;;;4.65;;
73760;SDS011;69240;43.530;-5.646;2023-05-25T03:09:13;9.18;;;4.50;;
73760;SDS011;69240;43.530;-5.646;2023-05-25T03:11:38;15.45;;;5.40;;
73760;SDS011;69240;43.530;-5.646;2023-05-25T03:14:04;11.45;;;5.18;;
73760;SDS011;69240;43.530;-5.646;2023-05-25T03:16:30;15.80;;;5.70;;
73760;SDS011;69240;43.530;-5.646;2023-05-25T03:18:59;14.95;;;5.53;;
73760;SDS011;69240;43.530;-5.646;2023-05-25T03:21:25;10.60;;;5.63;;
73760;SDS011;69240;43.530;-5.646;2023-05-25T03:23:51;13.65;;;6.10;;
73760;SDS011;69240;43.530;-5.646;2023-05-25T03:26:17;16.23;;;5.15;;
73760;SDS011;69240;43.530;-5.646;2023-05-25T03:28:42;12.35;;;5.55;;
73760;SDS011;69240;43.530;-5.646;2023-05-25T03:31:08;11.18;;;5.10;;
73760;SDS011;69240;43.530;-5.646;2023-05-25T03:33:34;12.48;;;4.90;;
73760;SDS011;69240;43.530;-5.646;2023-05-25T03:36:00;13.88;;;5.53;;
73760;SDS011;69240;43.530;-5.646;2023-05-25T03:38:31;18.27;;;5.53;;
73760;SDS011;69240;43.530;-5.646;2023-05-25T03:40:56;12.88;;;5.65;;
73760;SDS011;69240;43.530;-5.646;2023-05-25T03:43:22;12.00;;;6.13;;
73760;SDS011;69240;43.530;-5.646;2023-05-25T03:45:47;15.13;;;6.00;;
73760;SDS011;69240;43.530;-5.646;2023-05-25T03:48:13;11.70;;;5.88;;
73760;SDS011;69240;43.530;-5.646;2023-05-25T03:50:38;13.65;;;6.13;;
73760;SDS011;69240;43.530;-5.646;2023-05-25T03:53:05;11.02;;;5.38;;
73760;SDS011;69240;43.530;-5.646;2023-05-25T03:55:30;12.05;;;6.15;;
73760;SDS011;69240;43.530;-5.646;2023-05-25T03:57:56;11.65;;;6.13;;
73760;SDS011;69240;43.530;-5.646;2023-05-25T04:00:22;19.20;;;6.20;;
73760;SDS011;69240;43.530;-5.646;2023-05-25T04:02:48;17.45;;;6.78;;
73760;SDS011;69240;43.530;-5.646;2023-05-25T04:05:13;13.55;;;5.82;;
73760;SDS011;69240;43.530;-5.646;2023-05-25T04:07:39;12.70;;;5.53;;
73760;SDS011;69240;43.530;-5.646;2023-05-25T04:10:04;14.73;;;6.35;;
73760;SDS011;69240;43.530;-5.646;2023-05-25T04:12:31;12.75;;;6.20;;
73760;SDS011;69240;43.530;-5.646;2023-05-25T04:14:57;9.50;;;5.53;;
73760;SDS011;69240;43.530;-5.646;2023-05-25T04:17:23;15.30;;;6.50;;
73760;SDS011;69240;43.530;-5.646;2023-05-25T04:19:49;12.23;;;6.20;;
73760;SDS011;69240;43.530;-5.646;2023-05-25T04:22:16;10.10;;;6.18;;
73760;SDS011;69240;43.530;-5.646;2023-05-25T04:24:43;11.70;;;6.50;;
73760;SDS011;69240;43.530;-5.646;2023-05-25T04:27:09;14.65;;;6.65;;
73760;SDS011;69240;43.530;-5.646;2023-05-25T04:29:35;12.40;;;6.18;;
73760;SDS011;69240;43.530;-5.646;2023-05-25T04:32:02;13.82;;;6.40;;
73760;SDS011;69240;43.530;-5.646;2023-05-25T04:34:27;13.40;;;7.55;;
73760;SDS011;69240;43.530;-5.646;2023-05-25T04:36:53;12.50;;;7.68;;
73760;SDS011;69240;43.530;-5.646;2023-05-25T04:39:20;16.58;;;7.60;;
73760;SDS011;69240;43.530;-5.646;2023-05-25T04:41:46;11.82;;;6.72;;
73760;SDS011;69240;43.530;-5.646;2023-05-25T04:44:12;11.20;;;6.90;;
73760;SDS011;69240;43.530;-5.646;2023-05-25T04:46:38;14.07;;;7.18;;
73760;SDS011;69240;43.530;-5.646;2023-05-25T04:49:04;12.07;;;6.30;;
73760;SDS011;69240;43.530;-5.646;2023-05-25T04:51:32;14.18;;;7.07;;
73760;SDS011;69240;43.530;-5.646;2023-05-25T04:53:58;13.40;;;7.00;;
73760;SDS011;69240;43.530;-5.646;2023-05-25T04:56:24;12.35;;;6.80;;
73760;SDS011;69240;43.530;-5.646;2023-05-25T04:58:50;11.38;;;6.47;;
73760;SDS011;69240;43.530;-5.646;2023-05-25T05:01:17;13.27;;;6.90;;
73760;SDS011;69240;43.530;-5.646;2023-05-25T05:03:44;12.60;;;7.10;;
73760;SDS011;69240;43.530;-5.646;2023-05-25T05:06:10;10.38;;;6.07;;
73760;SDS011;69240;43.530;-5.646;2023-05-25T05:08:36;14.45;;;6.32;;
73760;SDS011;69240;43.530;-5.646;2023-05-25T05:11:01;10.13;;;6.25;;
73760;SDS011;69240;43.530;-5.646;2023-05-25T05:13:27;12.43;;;6.05;;
73760;SDS011;69240;43.530;-5.646;2023-05-25T05:15:52;12.13;;;5.75;;
73760;SDS011;69240;43.530;-5.646;2023-05-25T05:18:18;11.77;;;6.18;;
73760;SDS011;69240;43.530;-5.646;2023-05-25T05:20:44;14.52;;;6.53;;
73760;SDS011;69240;43.530;-5.646;2023-05-25T05:23:10;11.90;;;6.65;;
73760;SDS011;69240;43.530;-5.646;2023-05-25T05:25:35;16.02;;;6.38;;
73760;SDS011;69240;43.530;-5.646;2023-05-25T05:28:02;18.08;;;7.18;;
73760;SDS011;69240;43.530;-5.646;2023-05-25T05:30:28;11.02;;;5.88;;
73760;SDS011;69240;43.530;-5.646;2023-05-25T05:32:53;11.52;;;5.82;;
73760;SDS011;69240;43.530;-5.646;2023-05-25T05:35:19;12.73;;;5.63;;
73760;SDS011;69240;43.530;-5.646;2023-05-25T05:37:44;7.95;;;5.32;;
73760;SDS011;69240;43.530;-5.646;2023-05-25T05:40:11;10.63;;;5.50;;
73760;SDS011;69240;43.530;-5.646;2023-05-25T05:42:36;13.77;;;5.30;;
73760;SDS011;69240;43.530;-5.646;2023-05-25T05:45:05;10.63;;;5.28;;
73760;SDS011;69240;43.530;-5.646;2023-05-25T05:47:31;8.88;;;4.82;;
73760;SDS011;69240;43.530;-5.646;2023-05-25T05:49:56;9.07;;;5.43;;
73760;SDS011;69240;43.530;-5.646;2023-05-25T05:52:22;8.25;;;4.63;;
73760;SDS011;69240;43.530;-5.646;2023-05-25T05:54:47;12.35;;;5.28;;
73760;SDS011;69240;43.530;-5.646;2023-05-25T05:57:13;8.88;;;5.25;;
73760;SDS011;69240;43.530;-5.646;2023-05-25T05:59:38;10.43;;;4.85;;
73760;SDS011;69240;43.530;-5.646;2023-05-25T06:02:04;10.20;;;5.72;;
73760;SDS011;69240;43.530;-5.646;2023-05-25T06:04:31;12.02;;;5.20;;
73760;SDS011;69240;43.530;-5.646;2023-05-25T06:06:57;9.43;;;5.07;;
73760;SDS011;69240;43.530;-5.646;2023-05-25T06:09:23;11.48;;;5.35;;
73760;SDS011;69240;43.530;-5.646;2023-05-25T06:11:50;8.20;;;5.00;;
73760;SDS011;69240;43.530;-5.646;2023-05-25T06:14:16;11.35;;;5.68;;
73760;SDS011;69240;43.530;-5.646;2023-05-25T06:16:42;10.32;;;5.70;;
73760;SDS011;69240;43.530;-5.646;2023-05-25T06:19:07;7.60;;;5.32;;
73760;SDS011;69240;43.530;-5.646;2023-05-25T06:21:33;11.35;;;5.72;;
73760;SDS011;69240;43.530;-5.646;2023-05-25T06:23:59;11.10;;;6.15;;
73760;SDS011;69240;43.530;-5.646;2023-05-25T06:26:24;8.15;;;5.35;;
73760;SDS011;69240;43.530;-5.646;2023-05-25T06:28:51;11.55;;;5.75;;
73760;SDS011;69240;43.530;-5.646;2023-05-25T06:31:16;12.57;;;6.28;;
73760;SDS011;69240;43.530;-5.646;2023-05-25T06:33:42;13.43;;;6.35;;
73760;SDS011;69240;43.530;-5.646;2023-05-25T06:36:08;13.40;;;6.13;;
73760;SDS011;69240;43.530;-5.646;2023-05-25T06:38:35;10.23;;;6.07;;
73760;SDS011;69240;43.530;-5.646;2023-05-25T06:41:00;9.23;;;6.10;;
73760;SDS011;69240;43.530;-5.646;2023-05-25T06:43:27;13.40;;;6.15;;
73760;SDS011;69240;43.530;-5.646;2023-05-25T06:45:53;9.32;;;6.13;;
73760;SDS011;69240;43.530;-5.646;2023-05-25T06:48:19;12.00;;;6.03;;
73760;SDS011;69240;43.530;-5.646;2023-05-25T06:50:45;16.17;;;6.35;;
73760;SDS011;69240;43.530;-5.646;2023-05-25T06:53:10;9.65;;;5.97;;
73760;SDS011;69240;43.530;-5.646;2023-05-25T06:55:36;12.93;;;6.43;;
73760;SDS011;69240;43.530;-5.646;2023-05-25T06:58:01;13.57;;;7.05;;
73760;SDS011;69240;43.530;-5.646;2023-05-25T07:00:27;11.82;;;6.47;;
73760;SDS011;69240;43.530;-5.646;2023-05-25T07:02:53;12.25;;;6.30;;
73760;SDS011;69240;43.530;-5.646;2023-05-25T07:05:18;14.27;;;5.75;;
73760;SDS011;69240;43.530;-5.646;2023-05-25T07:07:44;12.05;;;5.80;;
73760;SDS011;69240;43.530;-5.646;2023-05-25T07:10:09;12.55;;;6.35;;
73760;SDS011;69240;43.530;-5.646;2023-05-25T07:12:35;13.82;;;6.72;;
73760;SDS011;69240;43.530;-5.646;2023-05-25T07:15:01;13.10;;;5.15;;
73760;SDS011;69240;43.530;-5.646;2023-05-25T07:17:26;14.50;;;5.38;;
73760;SDS011;69240;43.530;-5.646;2023-05-25T07:19:52;11.13;;;4.72;;
73760;SDS011;69240;43.530;-5.646;2023-05-25T07:22:18;12.98;;;5.57;;
73760;SDS011;69240;43.530;-5.646;2023-05-25T07:24:44;12.70;;;4.70;;
73760;SDS011;69240;43.530;-5.646;2023-05-25T07:27:11;16.50;;;5.30;;
73760;SDS011;69240;43.530;-5.646;2023-05-25T07:29:37;10.85;;;4.97;;
73760;SDS011;69240;43.530;-5.646;2023-05-25T07:32:03;14.90;;;4.60;;
73760;SDS011;69240;43.530;-5.646;2023-05-25T07:34:28;11.20;;;4.53;;
73760;SDS011;69240;43.530;-5.646;2023-05-25T07:36:54;10.15;;;4.35;;
73760;SDS011;69240;43.530;-5.646;2023-05-25T07:39:19;16.05;;;4.85;;
73760;SDS011;69240;43.530;-5.646;2023-05-25T07:41:45;11.13;;;4.22;;
73760;SDS011;69240;43.530;-5.646;2023-05-25T07:44:11;19.85;;;4.85;;
73760;SDS011;69240;43.530;-5.646;2023-05-25T07:46:36;17.15;;;5.03;;
73760;SDS011;69240;43.530;-5.646;2023-05-25T07:49:02;16.15;;;4.95;;
73760;SDS011;69240;43.530;-5.646;2023-05-25T07:51:28;11.77;;;4.38;;
73760;SDS011;69240;43.530;-5.646;2023-05-25T07:53:55;12.80;;;4.50;;
73760;SDS011;69240;43.530;-5.646;2023-05-25T07:56:21;11.63;;;4.35;;
73760;SDS011;69240;43.530;-5.646;2023-05-25T07:58:47;12.40;;;4.30;;
73760;SDS011;69240;43.530;-5.646;2023-05-25T08:01:13;16.88;;;4.57;;
73760;SDS011;69240;43.530;-5.646;2023-05-25T08:03:47;14.48;;;3.80;;
73760;SDS011;69240;43.530;-5.646;2023-05-25T08:09:34;20.83;;;5.15;;
73760;SDS011;69240;43.530;-5.646;2023-05-25T08:12:00;15.75;;;5.78;;
73760;SDS011;69240;43.530;-5.646;2023-05-25T08:14:25;20.90;;;5.85;;
73760;SDS011;69240;43.530;-5.646;2023-05-25T08:16:51;19.23;;;5.70;;
73760;SDS011;69240;43.530;-5.646;2023-05-25T08:19:16;18.55;;;5.72;;
73760;SDS011;69240;43.530;-5.646;2023-05-25T08:21:42;33.47;;;7.13;;
73760;SDS011;69240;43.530;-5.646;2023-05-25T08:24:07;17.73;;;5.60;;
73760;SDS011;69240;43.530;-5.646;2023-05-25T08:26:33;17.58;;;5.45;;
73760;SDS011;69240;43.530;-5.646;2023-05-25T08:29:01;19.70;;;4.88;;
73760;SDS011;69240;43.530;-5.646;2023-05-25T08:31:28;22.02;;;5.45;;
73760;SDS011;69240;43.530;-5.646;2023-05-25T08:33:57;24.98;;;5.30;;
73760;SDS011;69240;43.530;-5.646;2023-05-25T08:36:26;19.83;;;4.78;;
73760;SDS011;69240;43.530;-5.646;2023-05-25T08:38:52;17.83;;;3.45;;
73760;SDS011;69240;43.530;-5.646;2023-05-25T08:41:18;15.65;;;4.63;;
73760;SDS011;69240;43.530;-5.646;2023-05-25T08:43:45;14.63;;;3.30;;
73760;SDS011;69240;43.530;-5.646;2023-05-25T08:46:11;16.33;;;4.68;;
73760;SDS011;69240;43.530;-5.646;2023-05-25T08:48:37;16.58;;;4.03;;
73760;SDS011;69240;43.530;-5.646;2023-05-25T08:51:09;28.10;;;5.50;;
73760;SDS011;69240;43.530;-5.646;2023-05-25T08:53:40;15.57;;;3.78;;
73760;SDS011;69240;43.530;-5.646;2023-05-25T08:56:17;13.55;;;3.40;;
73760;SDS011;69240;43.530;-5.646;2023-05-25T08:58:45;13.13;;;3.33;;
73760;SDS011;69240;43.530;-5.646;2023-05-25T09:01:18;15.27;;;3.70;;
73760;SDS011;69240;43.530;-5.646;2023-05-25T09:03:45;11.90;;;3.90;;
73760;SDS011;69240;43.530;-5.646;2023-05-25T09:06:14;16.73;;;3.28;;
73760;SDS011;69240;43.530;-5.646;2023-05-25T09:08:40;17.15;;;3.55;;
73760;SDS011;69240;43.530;-5.646;2023-05-25T09:11:06;12.85;;;2.95;;
73760;SDS011;69240;43.530;-5.646;2023-05-25T09:13:32;14.07;;;3.17;;
73760;SDS011;69240;43.530;-5.646;2023-05-25T09:15:58;15.15;;;3.20;;
73760;SDS011;69240;43.530;-5.646;2023-05-25T09:18:23;11.65;;;3.28;;
73760;SDS011;69240;43.530;-5.646;2023-05-25T09:20:49;18.92;;;3.22;;
73760;SDS011;69240;43.530;-5.646;2023-05-25T09:23:15;13.57;;;2.95;;
73760;SDS011;69240;43.530;-5.646;2023-05-25T09:25:41;11.48;;;3.05;;
73760;SDS011;69240;43.530;-5.646;2023-05-25T09:28:08;9.57;;;2.60;;
73760;SDS011;69240;43.530;-5.646;2023-05-25T09:30:34;11.45;;;2.70;;
73760;SDS011;69240;43.530;-5.646;2023-05-25T09:33:10;14.73;;;3.33;;
73760;SDS011;69240;43.530;-5.646;2023-05-25T09:35:41;19.02;;;2.67;;
73760;SDS011;69240;43.530;-5.646;2023-05-25T09:38:08;16.73;;;3.13;;
73760;SDS011;69240;43.530;-5.646;2023-05-25T09:40:33;13.70;;;2.78;;
73760;SDS011;69240;43.530;-5.646;2023-05-25T09:43:00;6.65;;;2.30;;
73760;SDS011;69240;43.530;-5.646;2023-05-25T09:45:26;10.35;;;2.78;;
73760;SDS011;69240;43.530;-5.646;2023-05-25T09:47:56;14.88;;;2.92;;
73760;SDS011;69240;43.530;-5.646;2023-05-25T09:50:23;10.80;;;2.28;;
73760;SDS011;69240;43.530;-5.646;2023-05-25T09:52:56;7.72;;;2.63;;
73760;SDS011;69240;43.530;-5.646;2023-05-25T09:55:25;12.65;;;2.88;;
73760;SDS011;69240;43.530;-5.646;2023-05-25T09:57:52;13.07;;;2.85;;
73760;SDS011;69240;43.530;-5.646;2023-05-25T10:00:19;11.32;;;2.45;;
73760;SDS011;69240;43.530;-5.646;2023-05-25T10:02:46;9.00;;;2.42;;
73760;SDS011;69240;43.530;-5.646;2023-05-25T10:05:11;9.18;;;2.60;;
73760;SDS011;69240;43.530;-5.646;2023-05-25T10:07:37;9.93;;;2.58;;
73760;SDS011;69240;43.530;-5.646;2023-05-25T10:10:04;8.00;;;2.38;;
73760;SDS011;69240;43.530;-5.646;2023-05-25T10:12:34;16.33;;;2.70;;
73760;SDS011;69240;43.530;-5.646;2023-05-25T10:15:01;24.20;;;2.72;;
73760;SDS011;69240;43.530;-5.646;2023-05-25T10:17:29;15.18;;;2.85;;
73760;SDS011;69240;43.530;-5.646;2023-05-25T10:19:58;17.63;;;3.15;;
73760;SDS011;69240;43.530;-5.646;2023-05-25T10:22:31;15.38;;;3.38;;
73760;SDS011;69240;43.530;-5.646;2023-05-25T10:25:15;13.50;;;2.90;;
73760;SDS011;69240;43.530;-5.646;2023-05-25T10:27:47;14.13;;;3.28;;
73760;SDS011;69240;43.530;-5.646;2023-05-25T10:30:18;12.30;;;2.80;;
73760;SDS011;69240;43.530;-5.646;2023-05-25T10:32:44;15.05;;;3.17;;
73760;SDS011;69240;43.530;-5.646;2023-05-25T10:35:11;11.38;;;3.33;;
73760;SDS011;69240;43.530;-5.646;2023-05-25T10:37:38;16.17;;;2.90;;
73760;SDS011;69240;43.530;-5.646;2023-05-25T10:40:04;15.40;;;3.17;;
73760;SDS011;69240;43.530;-5.646;2023-05-25T10:42:32;11.95;;;2.58;;
73760;SDS011;69240;43.530;-5.646;2023-05-25T10:45:01;9.77;;;2.55;;
73760;SDS011;69240;43.530;-5.646;2023-05-25T10:47:31;14.70;;;2.40;;
73760;SDS011;69240;43.530;-5.646;2023-05-25T10:49:58;11.60;;;2.50;;
73760;SDS011;69240;43.530;-5.646;2023-05-25T10:52:27;10.48;;;2.72;;
73760;SDS011;69240;43.530;-5.646;2023-05-25T10:54:57;17.08;;;2.88;;
73760;SDS011;69240;43.530;-5.646;2023-05-25T10:57:26;14.48;;;3.38;;
73760;SDS011;69240;43.530;-5.646;2023-05-25T10:59:59;12.35;;;3.30;;
73760;SDS011;69240;43.530;-5.646;2023-05-25T11:02:27;11.45;;;3.00;;
73760;SDS011;69240;43.530;-5.646;2023-05-25T11:07:56;13.00;;;3.85;;
73760;SDS011;69240;43.530;-5.646;2023-05-25T11:10:41;15.57;;;3.47;;
73760;SDS011;69240;43.530;-5.646;2023-05-25T11:13:20;12.88;;;3.13;;
73760;SDS011;69240;43.530;-5.646;2023-05-25T11:16:17;14.95;;;3.70;;
73760;SDS011;69240;43.530;-5.646;2023-05-25T11:18:55;21.40;;;3.78;;
73760;SDS011;69240;43.530;-5.646;2023-05-25T11:23:54;9.38;;;3.35;;
73760;SDS011;69240;43.530;-5.646;2023-05-25T11:26:32;17.08;;;3.90;;
73760;SDS011;69240;43.530;-5.646;2023-05-25T11:28:59;12.27;;;3.22;;
73760;SDS011;69240;43.530;-5.646;2023-05-25T11:33:59;12.77;;;3.50;;
73760;SDS011;69240;43.530;-5.646;2023-05-25T11:36:26;14.35;;;3.05;;
73760;SDS011;69240;43.530;-5.646;2023-05-25T11:38:55;15.27;;;2.97;;
73760;SDS011;69240;43.530;-5.646;2023-05-25T11:41:22;14.90;;;4.00;;
73760;SDS011;69240;43.530;-5.646;2023-05-25T11:43:49;14.15;;;3.47;;
73760;SDS011;69240;43.530;-5.646;2023-05-25T11:46:18;8.30;;;3.10;;
73760;SDS011;69240;43.530;-5.646;2023-05-25T11:48:52;17.35;;;3.75;;
73760;SDS011;69240;43.530;-5.646;2023-05-25T11:51:25;19.08;;;3.42;;
73760;SDS011;69240;43.530;-5.646;2023-05-25T11:53:52;12.90;;;3.17;;
73760;SDS011;69240;43.530;-5.646;2023-05-25T11:56:19;11.70;;;3.63;;
73760;SDS011;69240;43.530;-5.646;2023-05-25T11:58:49;14.80;;;3.15;;
73760;SDS011;69240;43.530;-5.646;2023-05-25T12:01:19;14.25;;;3.10;;
73760;SDS011;69240;43.530;-5.646;2023-05-25T12:03:46;12.70;;;3.17;;
73760;SDS011;69240;43.530;-5.646;2023-05-25T12:06:22;11.02;;;3.25;;
73760;SDS011;69240;43.530;-5.646;2023-05-25T12:08:49;13.75;;;2.80;;
73760;SDS011;69240;43.530;-5.646;2023-05-25T12:11:15;10.27;;;2.70;;
73760;SDS011;69240;43.530;-5.646;2023-05-25T12:13:40;11.75;;;2.70;;
73760;SDS011;69240;43.530;-5.646;2023-05-25T12:16:06;10.48;;;2.58;;
73760;SDS011;69240;43.530;-5.646;2023-05-25T12:18:32;14.38;;;3.25;;
73760;SDS011;69240;43.530;-5.646;2023-05-25T12:20:57;13.82;;;3.30;;
73760;SDS011;69240;43.530;-5.646;2023-05-25T12:23:23;17.25;;;3.22;;
73760;SDS011;69240;43.530;-5.646;2023-05-25T12:26:03;11.00;;;2.90;;
73760;SDS011;69240;43.530;-5.646;2023-05-25T12:28:33;12.88;;;3.00;;
73760;SDS011;69240;43.530;-5.646;2023-05-25T12:30:58;13.07;;;3.28;;
73760;SDS011;69240;43.530;-5.646;2023-05-25T12:33:43;17.92;;;3.70;;
73760;SDS011;69240;43.530;-5.646;2023-05-25T12:36:09;8.43;;;2.58;;
73760;SDS011;69240;43.530;-5.646;2023-05-25T12:38:35;9.45;;;2.80;;
73760;SDS011;69240;43.530;-5.646;2023-05-25T12:41:04;12.00;;;2.83;;
73760;SDS011;69240;43.530;-5.646;2023-05-25T12:43:37;12.23;;;3.45;;
73760;SDS011;69240;43.530;-5.646;2023-05-25T12:46:04;13.13;;;2.67;;
73760;SDS011;69240;43.530;-5.646;2023-05-25T12:48:29;13.15;;;3.10;;
73760;SDS011;69240;43.530;-5.646;2023-05-25T12:50:58;6.85;;;2.83;;
73760;SDS011;69240;43.530;-5.646;2023-05-25T12:53:24;9.65;;;3.33;;
73760;SDS011;69240;43.530;-5.646;2023-05-25T12:56:00;13.45;;;3.53;;
73760;SDS011;69240;43.530;-5.646;2023-05-25T12:58:27;10.02;;;2.95;;
73760;SDS011;69240;43.530;-5.646;2023-05-25T13:00:53;14.10;;;2.78;;
73760;SDS011;69240;43.530;-5.646;2023-05-25T13:03:18;10.95;;;3.03;;
73760;SDS011;69240;43.530;-5.646;2023-05-25T13:05:44;14.20;;;3.55;;
73760;SDS011;69240;43.530;-5.646;2023-05-25T13:08:10;9.48;;;3.17;;
73760;SDS011;69240;43.530;-5.646;2023-05-25T13:10:36;16.25;;;4.10;;
73760;SDS011;69240;43.530;-5.646;2023-05-25T13:13:02;18.50;;;4.13;;
73760;SDS011;69240;43.530;-5.646;2023-05-25T13:15:28;18.10;;;3.20;;
73760;SDS011;69240;43.530;-5.646;2023-05-25T13:17:54;11.27;;;2.95;;
73760;SDS011;69240;43.530;-5.646;2023-05-25T13:20:23;5.95;;;2.50;;
73760;SDS011;69240;43.530;-5.646;2023-05-25T13:22:50;8.98;;;3.00;;
73760;SDS011;69240;43.530;-5.646;2023-05-25T13:25:17;18.08;;;3.88;;
73760;SDS011;69240;43.530;-5.646;2023-05-25T13:27:44;16.40;;;3.20;;
73760;SDS011;69240;43.530;-5.646;2023-05-25T13:30:11;17.30;;;3.42;;
73760;SDS011;69240;43.530;-5.646;2023-05-25T13:32:37;19.40;;;3.97;;
73760;SDS011;69240;43.530;-5.646;2023-05-25T13:35:03;15.70;;;4.20;;
73760;SDS011;69240;43.530;-5.646;2023-05-25T13:37:31;8.95;;;3.03;;
73760;SDS011;69240;43.530;-5.646;2023-05-25T13:39:58;10.88;;;3.28;;
73760;SDS011;69240;43.530;-5.646;2023-05-25T13:42:24;12.77;;;3.55;;
73760;SDS011;69240;43.530;-5.646;2023-05-25T13:44:50;11.57;;;3.63;;
73760;SDS011;69240;43.530;-5.646;2023-05-25T13:47:16;12.30;;;3.58;;
73760;SDS011;69240;43.530;-5.646;2023-05-25T13:49:42;10.80;;;3.00;;
73760;SDS011;69240;43.530;-5.646;2023-05-25T13:52:08;17.15;;;4.03;;
73760;SDS011;69240;43.530;-5.646;2023-05-25T13:54:33;11.40;;;3.97;;
73760;SDS011;69240;43.530;-5.646;2023-05-25T13:56:59;18.13;;;3.38;;
73760;SDS011;69240;43.530;-5.646;2023-05-25T13:59:24;13.57;;;3.08;;
73760;SDS011;69240;43.530;-5.646;2023-05-25T14:01:50;10.95;;;3.42;;
73760;SDS011;69240;43.530;-5.646;2023-05-25T14:04:16;11.82;;;3.50;;
73760;SDS011;69240;43.530;-5.646;2023-05-25T14:06:42;13.88;;;3.42;;
73760;SDS011;69240;43.530;-5.646;2023-05-25T14:09:08;17.33;;;3.85;;
73760;SDS011;69240;43.530;-5.646;2023-05-25T14:11:37;12.48;;;3.25;;
73760;SDS011;69240;43.530;-5.646;2023-05-25T14:14:03;12.50;;;3.17;;
73760;SDS011;69240;43.530;-5.646;2023-05-25T14:16:36;13.07;;;3.50;;
73760;SDS011;69240;43.530;-5.646;2023-05-25T14:19:02;17.60;;;3.67;;
73760;SDS011;69240;43.530;-5.646;2023-05-25T14:21:28;13.15;;;3.30;;
73760;SDS011;69240;43.530;-5.646;2023-05-25T14:23:55;15.88;;;3.55;;
73760;SDS011;69240;43.530;-5.646;2023-05-25T14:26:21;19.13;;;3.67;;
73760;SDS011;69240;43.530;-5.646;2023-05-25T14:28:47;11.07;;;3.65;;
73760;SDS011;69240;43.530;-5.646;2023-05-25T14:31:13;22.08;;;3.33;;
73760;SDS011;69240;43.530;-5.646;2023-05-25T14:34:32;16.58;;;4.13;;
73760;SDS011;69240;43.530;-5.646;2023-05-25T14:37:28;16.73;;;3.63;;
73760;SDS011;69240;43.530;-5.646;2023-05-25T14:40:41;17.60;;;3.33;;
